Seaside Park, New Jersey
Current Conditions -  °F | °C
As of 4:55 PM on Friday 24 Oct 2014 (Local Time) from KMJX Reporting Station
Clear Clear  
Wind Chill: 66°   Ceiling: Unl
Heat Index: 66°   Visibility: 10mi
Dew Point: 45°   Wind: 7mph
Humidity: 46%   Direction: 310°NW
Pressure: 29.78"   Gusts: NA
Location:  39.93°N, 74.07°W
Report Text: KMJX 242055Z AUTO 31006KT 10SM CLR 19/07 A2978 RMK AO1 57003
Loading
Personal Weather Stations






























Interactive Weather Map
Tropical Storm Tracking
New forecast layout! Learn more

10-Day Weather Forecast

Advertisements
Track Severe Weather on mobile